sensor_id;sensor_type;location;lat;lon;timestamp;pressure;altitude;pressure_sealevel;temperature
24714;BMP280;12820;51.580;5.010;2024-02-21T00:03:07;102260.69;;;11.72
24714;BMP280;12820;51.580;5.010;2024-02-21T00:08:09;102269.09;;;11.73
24714;BMP280;12820;51.580;5.010;2024-02-21T00:13:32;102247.25;;;11.72
24714;BMP280;12820;51.580;5.010;2024-02-21T00:18:34;102246.41;;;11.72
24714;BMP280;12820;51.580;5.010;2024-02-21T00:23:37;102221.22;;;11.68
24714;BMP280;12820;51.580;5.010;2024-02-21T00:28:39;102218.69;;;11.65
24714;BMP280;12820;51.580;5.010;2024-02-21T00:33:41;102212.81;;;11.61
24714;BMP280;12820;51.580;5.010;2024-02-21T00:38:44;102194.31;;;11.58
24714;BMP280;12820;51.580;5.010;2024-02-21T00:43:46;102199.34;;;11.54
24714;BMP280;12820;51.580;5.010;2024-02-21T00:48:51;102196.84;;;11.51
24714;BMP280;12820;51.580;5.010;2024-02-21T00:53:53;102197.66;;;11.48
24714;BMP280;12820;51.580;5.010;2024-02-21T00:58:57;102189.25;;;11.45
24714;BMP280;12820;51.580;5.010;2024-02-21T01:03:59;102170.78;;;11.41
24714;BMP280;12820;51.580;5.010;2024-02-21T01:09:02;102177.47;;;11.37
24714;BMP280;12820;51.580;5.010;2024-02-21T01:14:04;102168.25;;;11.33
24714;BMP280;12820;51.580;5.010;2024-02-21T01:19:06;102169.06;;;11.29
24714;BMP280;12820;51.580;5.010;2024-02-21T01:24:08;102173.25;;;11.30
24714;BMP280;12820;51.580;5.010;2024-02-21T01:29:11;102159.81;;;11.29
24714;BMP280;12820;51.580;5.010;2024-02-21T01:34:13;102158.16;;;11.30
24714;BMP280;12820;51.580;5.010;2024-02-21T01:39:15;102153.13;;;11.28
24714;BMP280;12820;51.580;5.010;2024-02-21T01:44:18;102158.16;;;11.31
24714;BMP280;12820;51.580;5.010;2024-02-21T01:49:21;102166.56;;;11.29
24714;BMP280;12820;51.580;5.010;2024-02-21T01:54:25;102158.16;;;11.30
24714;BMP280;12820;51.580;5.010;2024-02-21T01:59:30;102155.66;;;11.33
24714;BMP280;12820;51.580;5.010;2024-02-21T02:04:33;102134.66;;;11.31
24714;BMP280;12820;51.580;5.010;2024-02-21T02:09:36;102137.19;;;11.35
24714;BMP280;12820;51.580;5.010;2024-02-21T02:14:39;102127.09;;;11.34
24714;BMP280;12820;51.580;5.010;2024-02-21T02:19:41;102118.72;;;11.32
24714;BMP280;12820;51.580;5.010;2024-02-21T02:24:43;102106.97;;;11.31
24714;BMP280;12820;51.580;5.010;2024-02-21T02:29:46;102105.31;;;11.33
24714;BMP280;12820;51.580;5.010;2024-02-21T02:34:48;102105.31;;;11.28
24714;BMP280;12820;51.580;5.010;2024-02-21T02:39:50;102101.09;;;11.27
24714;BMP280;12820;51.580;5.010;2024-02-21T02:44:52;102093.53;;;11.27
24714;BMP280;12820;51.580;5.010;2024-02-21T02:49:55;102089.31;;;11.26
24714;BMP280;12820;51.580;5.010;2024-02-21T02:54:57;102080.09;;;11.27
24714;BMP280;12820;51.580;5.010;2024-02-21T03:00:00;102077.63;;;11.28
24714;BMP280;12820;51.580;5.010;2024-02-21T03:05:14;102070.00;;;11.27
24714;BMP280;12820;51.580;5.010;2024-02-21T03:10:17;102064.97;;;11.27
24714;BMP280;12820;51.580;5.010;2024-02-21T03:15:20;102045.72;;;11.27
24714;BMP280;12820;51.580;5.010;2024-02-21T03:20:22;102043.22;;;11.27
24714;BMP280;12820;51.580;5.010;2024-02-21T03:25:25;102030.63;;;11.27
24714;BMP280;12820;51.580;5.010;2024-02-21T03:30:27;102041.50;;;11.29
24714;BMP280;12820;51.580;5.010;2024-02-21T03:35:29;102018.00;;;11.26
24714;BMP280;12820;51.580;5.010;2024-02-21T03:40:31;102018.06;;;11.29
24714;BMP280;12820;51.580;5.010;2024-02-21T03:45:33;102007.94;;;11.26
24714;BMP280;12820;51.580;5.010;2024-02-21T03:50:36;102002.06;;;11.22
24714;BMP280;12820;51.580;5.010;2024-02-21T03:55:38;101996.19;;;11.19
24714;BMP280;12820;51.580;5.010;2024-02-21T04:00:40;101997.03;;;11.14
24714;BMP280;12820;51.580;5.010;2024-02-21T04:05:44;102006.22;;;11.10
24714;BMP280;12820;51.580;5.010;2024-02-21T04:10:47;102007.06;;;11.09
24714;BMP280;12820;51.580;5.010;2024-02-21T04:15:49;102002.03;;;11.05
24714;BMP280;12820;51.580;5.010;2024-02-21T04:20:52;102006.22;;;11.04
24714;BMP280;12820;51.580;5.010;2024-02-21T04:25:54;102001.19;;;11.04
24714;BMP280;12820;51.580;5.010;2024-02-21T04:30:56;102015.44;;;11.02
24714;BMP280;12820;51.580;5.010;2024-02-21T04:35:58;102001.19;;;11.03
24714;BMP280;12820;51.580;5.010;2024-02-21T04:41:02;102008.75;;;11.04
24714;BMP280;12820;51.580;5.010;2024-02-21T04:46:04;101994.47;;;11.02
24714;BMP280;12820;51.580;5.010;2024-02-21T04:51:06;101986.09;;;11.04
24714;BMP280;12820;51.580;5.010;2024-02-21T04:56:09;101972.66;;;11.01
24714;BMP280;12820;51.580;5.010;2024-02-21T05:01:11;101971.84;;;11.03
24714;BMP280;12820;51.580;5.010;2024-02-21T05:06:13;101968.47;;;11.03
24714;BMP280;12820;51.580;5.010;2024-02-21T05:11:16;101954.22;;;11.03
24714;BMP280;12820;51.580;5.010;2024-02-21T05:16:18;101945.81;;;11.03
24714;BMP280;12820;51.580;5.010;2024-02-21T05:21:22;101937.44;;;11.02
24714;BMP280;12820;51.580;5.010;2024-02-21T05:26:26;101921.50;;;11.03
24714;BMP280;12820;51.580;5.010;2024-02-21T05:36:53;101918.16;;;11.03
24714;BMP280;12820;51.580;5.010;2024-02-21T05:41:55;101896.34;;;11.00
24714;BMP280;12820;51.580;5.010;2024-02-21T05:46:58;101902.22;;;11.02
24714;BMP280;12820;51.580;5.010;2024-02-21T05:52:00;101903.91;;;11.03
24714;BMP280;12820;51.580;5.010;2024-02-21T05:57:02;101894.66;;;11.01
24714;BMP280;12820;51.580;5.010;2024-02-21T06:02:05;101890.47;;;11.01
24714;BMP280;12820;51.580;5.010;2024-02-21T06:07:07;101876.22;;;11.00
24714;BMP280;12820;51.580;5.010;2024-02-21T06:12:09;101867.00;;;11.00
24714;BMP280;12820;51.580;5.010;2024-02-21T06:17:11;101874.53;;;11.01
24714;BMP280;12820;51.580;5.010;2024-02-21T06:22:14;101859.47;;;10.98
24714;BMP280;12820;51.580;5.010;2024-02-21T06:27:16;101864.50;;;11.00
24714;BMP280;12820;51.580;5.010;2024-02-21T06:32:19;101861.97;;;11.01
24714;BMP280;12820;51.580;5.010;2024-02-21T06:37:21;101873.72;;;11.03
24714;BMP280;12820;51.580;5.010;2024-02-21T06:42:26;101873.72;;;11.03
24714;BMP280;12820;51.580;5.010;2024-02-21T06:47:28;101868.69;;;11.03
24714;BMP280;12820;51.580;5.010;2024-02-21T06:52:30;101867.00;;;11.04
24714;BMP280;12820;51.580;5.010;2024-02-21T06:57:33;101861.97;;;11.08
24714;BMP280;12820;51.580;5.010;2024-02-21T07:02:35;101850.22;;;11.07
24714;BMP280;12820;51.580;5.010;2024-02-21T07:07:37;101838.47;;;11.06
24714;BMP280;12820;51.580;5.010;2024-02-21T07:12:39;101841.84;;;11.08
24714;BMP280;12820;51.580;5.010;2024-02-21T07:17:47;101831.78;;;11.11
24714;BMP280;12820;51.580;5.010;2024-02-21T07:22:50;101828.41;;;11.12
24714;BMP280;12820;51.580;5.010;2024-02-21T07:27:52;101835.13;;;11.16
24714;BMP280;12820;51.580;5.010;2024-02-21T07:32:55;101820.88;;;11.17
24714;BMP280;12820;51.580;5.010;2024-02-21T07:37:57;101814.16;;;11.21
24714;BMP280;12820;51.580;5.010;2024-02-21T07:42:59;101792.31;;;11.25
24714;BMP280;12820;51.580;5.010;2024-02-21T07:48:02;101785.63;;;11.30
24714;BMP280;12820;51.580;5.010;2024-02-21T07:53:04;101783.13;;;11.33
24714;BMP280;12820;51.580;5.010;2024-02-21T07:58:06;101775.53;;;11.38
24714;BMP280;12820;51.580;5.010;2024-02-21T08:03:09;101778.06;;;11.47
24714;BMP280;12820;51.580;5.010;2024-02-21T08:08:12;101758.75;;;11.52
24714;BMP280;12820;51.580;5.010;2024-02-21T08:13:20;101743.56;;;11.62
24714;BMP280;12820;51.580;5.010;2024-02-21T08:18:23;101730.97;;;11.71
24714;BMP280;12820;51.580;5.010;2024-02-21T08:23:25;101726.72;;;11.80
24714;BMP280;12820;51.580;5.010;2024-02-21T08:28:28;101713.25;;;11.86
24714;BMP280;12820;51.580;5.010;2024-02-21T08:33:33;101701.47;;;11.89
24714;BMP280;12820;51.580;5.010;2024-02-21T08:38:35;101695.53;;;11.99
24714;BMP280;12820;51.580;5.010;2024-02-21T08:43:38;101690.44;;;12.07
24714;BMP280;12820;51.580;5.010;2024-02-21T08:48:40;101688.69;;;12.15
24714;BMP280;12820;51.580;5.010;2024-02-21T08:53:47;101672.69;;;12.21
24714;BMP280;12820;51.580;5.010;2024-02-21T08:58:49;101675.16;;;12.28
24714;BMP280;12820;51.580;5.010;2024-02-21T09:03:52;101667.53;;;12.37
24714;BMP280;12820;51.580;5.010;2024-02-21T09:08:57;101663.22;;;12.47
24714;BMP280;12820;51.580;5.010;2024-02-21T09:14:00;101652.28;;;12.50
24714;BMP280;12820;51.580;5.010;2024-02-21T09:19:03;101645.56;;;12.52
24714;BMP280;12820;51.580;5.010;2024-02-21T09:24:06;101656.44;;;12.52
24714;BMP280;12820;51.580;5.010;2024-02-21T09:29:08;101638.84;;;12.48
24714;BMP280;12820;51.580;5.010;2024-02-21T09:34:11;101622.06;;;12.45
24714;BMP280;12820;51.580;5.010;2024-02-21T09:39:13;101601.06;;;12.45
24714;BMP280;12820;51.580;5.010;2024-02-21T09:44:20;101588.41;;;12.48
24714;BMP280;12820;51.580;5.010;2024-02-21T09:49:34;101577.44;;;12.53
24714;BMP280;12820;51.580;5.010;2024-02-21T09:54:41;101563.91;;;12.60
24714;BMP280;12820;51.580;5.010;2024-02-21T09:59:47;101537.84;;;12.65
24714;BMP280;12820;51.580;5.010;2024-02-21T10:04:49;101541.03;;;12.80
24714;BMP280;12820;51.580;5.010;2024-02-21T10:10:02;101531.66;;;12.88
24714;BMP280;12820;51.580;5.010;2024-02-21T10:15:06;101497.06;;;12.96
24714;BMP280;12820;51.580;5.010;2024-02-21T10:20:09;101486.00;;;13.04
24714;BMP280;12820;51.580;5.010;2024-02-21T10:25:12;101451.34;;;13.18
24714;BMP280;12820;51.580;5.010;2024-02-21T10:30:15;101422.38;;;13.38
24714;BMP280;12820;51.580;5.010;2024-02-21T10:35:31;101413.53;;;13.62
24714;BMP280;12820;51.580;5.010;2024-02-21T10:40:33;101432.69;;;13.75
24714;BMP280;12820;51.580;5.010;2024-02-21T10:45:36;101438.59;;;13.75
24714;BMP280;12820;51.580;5.010;2024-02-21T10:51:28;101442.81;;;13.73
24714;BMP280;12820;51.580;5.010;2024-02-21T10:56:21;101450.38;;;13.75
24714;BMP280;12820;51.580;5.010;2024-02-21T11:01:24;101431.00;;;13.75
24714;BMP280;12820;51.580;5.010;2024-02-21T11:06:29;101411.50;;;13.80
24714;BMP280;12820;51.580;5.010;2024-02-21T11:11:43;101397.00;;;13.92
24714;BMP280;12820;51.580;5.010;2024-02-21T11:16:47;101415.16;;;14.12
24714;BMP280;12820;51.580;5.010;2024-02-21T11:21:54;101401.69;;;14.11
24714;BMP280;12820;51.580;5.010;2024-02-21T11:27:20;101394.19;;;14.07
24714;BMP280;12820;51.580;5.010;2024-02-21T11:32:25;101363.84;;;14.08
24714;BMP280;12820;51.580;5.010;2024-02-21T11:37:28;101326.31;;;14.28
24714;BMP280;12820;51.580;5.010;2024-02-21T11:42:31;101316.69;;;14.44
24714;BMP280;12820;51.580;5.010;2024-02-21T11:53:27;101273.41;;;14.92
24714;BMP280;12820;51.580;5.010;2024-02-21T12:00:18;101254.25;;;15.14
24714;BMP280;12820;51.580;5.010;2024-02-21T12:06:13;101239.50;;;15.28
24714;BMP280;12820;51.580;5.010;2024-02-21T12:12:32;101227.38;;;15.40
24714;BMP280;12820;51.580;5.010;2024-02-21T12:18:08;101220.59;;;15.41
24714;BMP280;12820;51.580;5.010;2024-02-21T12:23:12;101208.13;;;15.33
24714;BMP280;12820;51.580;5.010;2024-02-21T12:28:17;101194.00;;;15.27
24714;BMP280;12820;51.580;5.010;2024-02-21T12:33:21;101166.28;;;15.21
24714;BMP280;12820;51.580;5.010;2024-02-21T12:38:24;101119.06;;;15.20
24714;BMP280;12820;51.580;5.010;2024-02-21T12:43:27;101105.44;;;15.24
24714;BMP280;12820;51.580;5.010;2024-02-21T12:48:29;101105.53;;;15.21
24714;BMP280;12820;51.580;5.010;2024-02-21T12:53:31;101111.44;;;15.21
24714;BMP280;12820;51.580;5.010;2024-02-21T12:58:35;101114.09;;;15.17
24714;BMP280;12820;51.580;5.010;2024-02-21T13:03:38;101086.22;;;15.17
24714;BMP280;12820;51.580;5.010;2024-02-21T13:08:40;101094.41;;;15.26
24714;BMP280;12820;51.580;5.010;2024-02-21T13:13:43;101091.72;;;15.30
24714;BMP280;12820;51.580;5.010;2024-02-21T13:18:46;101072.38;;;15.28
24714;BMP280;12820;51.580;5.010;2024-02-21T13:23:49;101047.72;;;15.34
24714;BMP280;12820;51.580;5.010;2024-02-21T13:28:52;101034.22;;;15.34
24714;BMP280;12820;51.580;5.010;2024-02-21T13:33:55;101020.97;;;15.26
24714;BMP280;12820;51.580;5.010;2024-02-21T13:38:57;101013.78;;;15.13
24714;BMP280;12820;51.580;5.010;2024-02-21T13:43:59;101008.09;;;15.05
24714;BMP280;12820;51.580;5.010;2024-02-21T13:49:04;101004.25;;;14.93
24714;BMP280;12820;51.580;5.010;2024-02-21T13:54:10;100979.06;;;14.88
24714;BMP280;12820;51.580;5.010;2024-02-21T13:59:13;100956.44;;;14.82
24714;BMP280;12820;51.580;5.010;2024-02-21T14:04:15;100948.13;;;14.79
24714;BMP280;12820;51.580;5.010;2024-02-21T14:09:19;100934.03;;;14.71
24714;BMP280;12820;51.580;5.010;2024-02-21T14:14:21;100908.16;;;14.61
24714;BMP280;12820;51.580;5.010;2024-02-21T14:19:23;100884.91;;;14.51
24714;BMP280;12820;51.580;5.010;2024-02-21T14:24:26;100868.34;;;14.41
24714;BMP280;12820;51.580;5.010;2024-02-21T14:29:29;100855.16;;;14.30
24714;BMP280;12820;51.580;5.010;2024-02-21T14:34:31;100832.72;;;14.20
24714;BMP280;12820;51.580;5.010;2024-02-21T14:39:34;100820.31;;;14.13
24714;BMP280;12820;51.580;5.010;2024-02-21T14:44:37;100804.59;;;14.02
24714;BMP280;12820;51.580;5.010;2024-02-21T14:49:39;100783.84;;;13.91
24714;BMP280;12820;51.580;5.010;2024-02-21T14:54:42;100778.06;;;13.88
24714;BMP280;12820;51.580;5.010;2024-02-21T14:59:48;100752.28;;;13.76
24714;BMP280;12820;51.580;5.010;2024-02-21T15:04:58;100734.13;;;13.64
24714;BMP280;12820;51.580;5.010;2024-02-21T15:10:01;100731.81;;;13.56
24714;BMP280;12820;51.580;5.010;2024-02-21T15:15:05;100708.53;;;13.46
24714;BMP280;12820;51.580;5.010;2024-02-21T15:20:07;100686.09;;;13.37
24714;BMP280;12820;51.580;5.010;2024-02-21T15:25:11;100679.63;;;13.27
24714;BMP280;12820;51.580;5.010;2024-02-21T15:30:17;100665.47;;;13.22
24714;BMP280;12820;51.580;5.010;2024-02-21T15:35:20;100645.44;;;13.16
24714;BMP280;12820;51.580;5.010;2024-02-21T15:40:23;100624.69;;;13.07
24714;BMP280;12820;51.580;5.010;2024-02-21T15:45:25;100609.78;;;12.99
24714;BMP280;12820;51.580;5.010;2024-02-21T15:50:27;100602.59;;;12.85
24714;BMP280;12820;51.580;5.010;2024-02-21T15:55:31;100597.75;;;12.78
24714;BMP280;12820;51.580;5.010;2024-02-21T16:14:22;100569.34;;;12.39
24714;BMP280;12820;51.580;5.010;2024-02-21T16:20:12;100567.94;;;12.29
24714;BMP280;12820;51.580;5.010;2024-02-21T16:26:02;100563.91;;;12.24
24714;BMP280;12820;51.580;5.010;2024-02-21T16:37:51;100533.25;;;12.06
24714;BMP280;12820;51.580;5.010;2024-02-21T16:43:58;100510.84;;;11.95
24714;BMP280;12820;51.580;5.010;2024-02-21T16:49:00;100510.19;;;11.89
24714;BMP280;12820;51.580;5.010;2024-02-21T16:54:03;100496.81;;;11.87
24714;BMP280;12820;51.580;5.010;2024-02-21T16:59:12;100496.94;;;11.81
24714;BMP280;12820;51.580;5.010;2024-02-21T17:04:14;100487.91;;;11.74
24714;BMP280;12820;51.580;5.010;2024-02-21T17:09:16;100478.59;;;11.76
24714;BMP280;12820;51.580;5.010;2024-02-21T17:14:20;100463.63;;;11.72
24714;BMP280;12820;51.580;5.010;2024-02-21T17:19:24;100452.78;;;11.70
24714;BMP280;12820;51.580;5.010;2024-02-21T17:24:26;100450.28;;;11.69
24714;BMP280;12820;51.580;5.010;2024-02-21T17:29:28;100449.50;;;11.67
24714;BMP280;12820;51.580;5.010;2024-02-21T17:34:31;100443.69;;;11.65
24714;BMP280;12820;51.580;5.010;2024-02-21T17:39:34;100421.13;;;11.60
24714;BMP280;12820;51.580;5.010;2024-02-21T17:44:36;100412.78;;;11.58
24714;BMP280;12820;51.580;5.010;2024-02-21T17:56:11;100394.41;;;11.56
24714;BMP280;12820;51.580;5.010;2024-02-21T18:01:13;100366.75;;;11.55
24714;BMP280;12820;51.580;5.010;2024-02-21T18:06:15;100376.91;;;11.52
24714;BMP280;12820;51.580;5.010;2024-02-21T18:11:41;100375.16;;;11.54
24714;BMP280;12820;51.580;5.010;2024-02-21T18:17:05;100361.03;;;11.49
24714;BMP280;12820;51.580;5.010;2024-02-21T18:31:22;100334.28;;;11.46
24714;BMP280;12820;51.580;5.010;2024-02-21T18:37:13;100313.31;;;11.46
24714;BMP280;12820;51.580;5.010;2024-02-21T18:42:18;100289.84;;;11.45
24714;BMP280;12820;51.580;5.010;2024-02-21T18:47:20;100299.81;;;11.48
24714;BMP280;12820;51.580;5.010;2024-02-21T18:52:22;100276.41;;;11.46
24714;BMP280;12820;51.580;5.010;2024-02-21T18:57:24;100283.09;;;11.47
24714;BMP280;12820;51.580;5.010;2024-02-21T19:02:27;100272.13;;;11.48
24714;BMP280;12820;51.580;5.010;2024-02-21T19:07:29;100258.75;;;11.48
24714;BMP280;12820;51.580;5.010;2024-02-21T19:12:34;100262.84;;;11.52
24714;BMP280;12820;51.580;5.010;2024-02-21T19:17:36;100251.94;;;11.51
24714;BMP280;12820;51.580;5.010;2024-02-21T19:22:39;100251.94;;;11.51
24714;BMP280;12820;51.580;5.010;2024-02-21T19:27:43;100238.56;;;11.49
24714;BMP280;12820;51.580;5.010;2024-02-21T19:32:45;100224.31;;;11.48
24714;BMP280;12820;51.580;5.010;2024-02-21T19:37:48;100208.34;;;11.51
24714;BMP280;12820;51.580;5.010;2024-02-21T19:42:51;100211.59;;;11.54
24714;BMP280;12820;51.580;5.010;2024-02-21T19:47:54;100193.13;;;11.54
24714;BMP280;12820;51.580;5.010;2024-02-21T19:52:56;100193.91;;;11.57
24714;BMP280;12820;51.580;5.010;2024-02-21T19:57:59;100182.94;;;11.58
24714;BMP280;12820;51.580;5.010;2024-02-21T20:03:01;100172.03;;;11.59
24714;BMP280;12820;51.580;5.010;2024-02-21T20:08:05;100166.22;;;11.57
24714;BMP280;12820;51.580;5.010;2024-02-21T20:13:08;100153.66;;;11.55
24714;BMP280;12820;51.580;5.010;2024-02-21T20:18:10;100148.50;;;11.60
24714;BMP280;12820;51.580;5.010;2024-02-21T20:23:14;100147.66;;;11.61
24714;BMP280;12820;51.580;5.010;2024-02-21T20:28:17;100133.41;;;11.60
24714;BMP280;12820;51.580;5.010;2024-02-21T20:33:20;100120.00;;;11.59
24714;BMP280;12820;51.580;5.010;2024-02-21T20:38:22;100112.44;;;11.59
24714;BMP280;12820;51.580;5.010;2024-02-21T20:43:24;100095.63;;;11.61
24714;BMP280;12820;51.580;5.010;2024-02-21T20:48:26;100101.38;;;11.65
24714;BMP280;12820;51.580;5.010;2024-02-21T20:53:29;100082.13;;;11.64
24714;BMP280;12820;51.580;5.010;2024-02-21T20:58:31;100094.72;;;11.62
24714;BMP280;12820;51.580;5.010;2024-02-21T21:03:33;100084.63;;;11.64
24714;BMP280;12820;51.580;5.010;2024-02-21T21:08:36;100088.81;;;11.65
24714;BMP280;12820;51.580;5.010;2024-02-21T21:13:38;100078.69;;;11.66
24714;BMP280;12820;51.580;5.010;2024-02-21T21:18:41;100087.84;;;11.69
24714;BMP280;12820;51.580;5.010;2024-02-21T21:23:43;100066.00;;;11.69
24714;BMP280;12820;51.580;5.010;2024-02-21T21:28:46;100073.38;;;11.75
24714;BMP280;12820;51.580;5.010;2024-02-21T21:33:48;100056.78;;;11.70
24714;BMP280;12820;51.580;5.010;2024-02-21T21:38:51;100062.53;;;11.73
24714;BMP280;12820;51.580;5.010;2024-02-21T21:43:55;100054.94;;;11.74
24714;BMP280;12820;51.580;5.010;2024-02-21T21:48:57;100040.69;;;11.73
24714;BMP280;12820;51.580;5.010;2024-02-21T21:54:00;100032.97;;;11.79
24714;BMP280;12820;51.580;5.010;2024-02-21T21:59:02;100022.03;;;11.80
24714;BMP280;12820;51.580;5.010;2024-02-21T22:04:07;100017.75;;;11.82
24714;BMP280;12820;51.580;5.010;2024-02-21T22:09:10;100006.03;;;11.81
24714;BMP280;12820;51.580;5.010;2024-02-21T22:14:12;99998.44;;;11.83
24714;BMP280;12820;51.580;5.010;2024-02-21T22:19:14;99989.16;;;11.85
24714;BMP280;12820;51.580;5.010;2024-02-21T22:24:16;99981.44;;;11.89
24714;BMP280;12820;51.580;5.010;2024-02-21T22:29:20;99976.47;;;11.88
24714;BMP280;12820;51.580;5.010;2024-02-21T22:34:24;99978.81;;;11.92
24714;BMP280;12820;51.580;5.010;2024-02-21T22:39:27;99972.94;;;11.93
24714;BMP280;12820;51.580;5.010;2024-02-21T22:44:29;99964.50;;;11.94
24714;BMP280;12820;51.580;5.010;2024-02-21T22:49:31;99947.75;;;11.93
24714;BMP280;12820;51.580;5.010;2024-02-21T22:54:34;99947.56;;;11.99
24714;BMP280;12820;51.580;5.010;2024-02-21T22:59:36;99954.25;;;12.00
24714;BMP280;12820;51.580;5.010;2024-02-21T23:04:38;99960.91;;;12.01
24714;BMP280;12820;51.580;5.010;2024-02-21T23:09:40;99957.44;;;12.05
24714;BMP280;12820;51.580;5.010;2024-02-21T23:14:42;99962.47;;;12.05
24714;BMP280;12820;51.580;5.010;2024-02-21T23:19:45;99951.50;;;12.06
24714;BMP280;12820;51.580;5.010;2024-02-21T23:24:47;99947.25;;;12.07
24714;BMP280;12820;51.580;5.010;2024-02-21T23:29:49;99947.94;;;12.11
24714;BMP280;12820;51.580;5.010;2024-02-21T23:34:52;99944.56;;;12.12
24714;BMP280;12820;51.580;5.010;2024-02-21T23:39:54;99937.06;;;12.10
24714;BMP280;12820;51.580;5.010;2024-02-21T23:44:56;99948.66;;;12.14
24714;BMP280;12820;51.580;5.010;2024-02-21T23:49:58;99951.97;;;12.16
24714;BMP280;12820;51.580;5.010;2024-02-21T23:55:00;99940.06;;;12.20
